sensor_id;sensor_type;location;lat;lon;timestamp;pressure;altitude;pressure_sealevel;temperature;humidity
34081;BME280;20358;50.272;19.026;2022-08-19T00:02:11;97722.44;;;23.22;63.59
34081;BME280;20358;50.272;19.026;2022-08-19T00:05:20;97728.97;;;23.19;63.94
34081;BME280;20358;50.272;19.026;2022-08-19T00:08:29;97717.81;;;23.16;63.81
34081;BME280;20358;50.272;19.026;2022-08-19T00:11:37;97719.81;;;23.14;63.89
34081;BME280;20358;50.272;19.026;2022-08-19T00:14:44;97722.69;;;23.12;64.44
34081;BME280;20358;50.272;19.026;2022-08-19T00:17:51;97728.38;;;23.09;64.05
34081;BME280;20358;50.272;19.026;2022-08-19T00:20:58;97732.22;;;23.07;64.84
34081;BME280;20358;50.272;19.026;2022-08-19T00:24:10;97732.78;;;23.02;64.73
34081;BME280;20358;50.272;19.026;2022-08-19T00:27:16;97730.63;;;22.98;65.19
34081;BME280;20358;50.272;19.026;2022-08-19T00:30:29;97721.47;;;22.92;65.09
34081;BME280;20358;50.272;19.026;2022-08-19T00:33:35;97718.97;;;22.91;65.01
34081;BME280;20358;50.272;19.026;2022-08-19T00:36:42;97713.63;;;22.91;65.22
34081;BME280;20358;50.272;19.026;2022-08-19T00:39:52;97711.97;;;22.90;65.59
34081;BME280;20358;50.272;19.026;2022-08-19T00:42:59;97703.31;;;22.88;65.64
34081;BME280;20358;50.272;19.026;2022-08-19T00:46:05;97698.97;;;22.87;66.00
34081;BME280;20358;50.272;19.026;2022-08-19T00:49:19;97705.69;;;22.83;65.86
34081;BME280;20358;50.272;19.026;2022-08-19T00:52:30;97707.03;;;22.79;66.08
34081;BME280;20358;50.272;19.026;2022-08-19T00:55:42;97708.03;;;22.78;66.40
34081;BME280;20358;50.272;19.026;2022-08-19T00:58:54;97707.56;;;22.74;66.26
34081;BME280;20358;50.272;19.026;2022-08-19T01:02:04;97695.22;;;22.73;66.51
34081;BME280;20358;50.272;19.026;2022-08-19T01:05:14;97689.03;;;22.73;66.37
34081;BME280;20358;50.272;19.026;2022-08-19T01:08:22;97698.41;;;22.69;66.58
34081;BME280;20358;50.272;19.026;2022-08-19T01:11:34;97689.06;;;22.64;66.57
34081;BME280;20358;50.272;19.026;2022-08-19T01:14:42;97702.59;;;22.63;66.78
34081;BME280;20358;50.272;19.026;2022-08-19T01:17:49;97688.75;;;22.59;66.72
34081;BME280;20358;50.272;19.026;2022-08-19T01:21:08;97692.44;;;22.58;66.77
34081;BME280;20358;50.272;19.026;2022-08-19T01:24:20;97686.78;;;22.53;67.21
34081;BME280;20358;50.272;19.026;2022-08-19T01:27:37;97682.44;;;22.52;67.18
34081;BME280;20358;50.272;19.026;2022-08-19T01:30:45;97683.97;;;22.47;67.48
34081;BME280;20358;50.272;19.026;2022-08-19T01:33:56;97686.00;;;22.45;67.58
34081;BME280;20358;50.272;19.026;2022-08-19T01:37:06;97694.34;;;22.42;67.63
34081;BME280;20358;50.272;19.026;2022-08-19T01:40:20;97691.22;;;22.38;67.72
34081;BME280;20358;50.272;19.026;2022-08-19T01:43:26;97686.38;;;22.34;67.75
34081;BME280;20358;50.272;19.026;2022-08-19T01:46:33;97690.22;;;22.31;68.08
34081;BME280;20358;50.272;19.026;2022-08-19T01:49:39;97686.06;;;22.29;67.86
34081;BME280;20358;50.272;19.026;2022-08-19T01:52:47;97680.91;;;22.27;68.08
34081;BME280;20358;50.272;19.026;2022-08-19T01:56:07;97674.91;;;22.25;68.28
34081;BME280;20358;50.272;19.026;2022-08-19T01:59:16;97676.91;;;22.23;68.41
34081;BME280;20358;50.272;19.026;2022-08-19T02:02:23;97672.94;;;22.19;68.46
34081;BME280;20358;50.272;19.026;2022-08-19T02:05:30;97667.28;;;22.14;68.66
34081;BME280;20358;50.272;19.026;2022-08-19T02:08:37;97662.28;;;22.11;68.69
34081;BME280;20358;50.272;19.026;2022-08-19T02:11:52;97669.63;;;22.09;68.88
34081;BME280;20358;50.272;19.026;2022-08-19T02:14:58;97673.63;;;22.05;69.01
34081;BME280;20358;50.272;19.026;2022-08-19T02:18:06;97677.66;;;22.01;69.18
34081;BME280;20358;50.272;19.026;2022-08-19T02:21:12;97672.31;;;22.01;69.35
34081;BME280;20358;50.272;19.026;2022-08-19T02:24:19;97662.19;;;21.96;69.26
34081;BME280;20358;50.272;19.026;2022-08-19T02:27:28;97668.66;;;21.94;69.84
34081;BME280;20358;50.272;19.026;2022-08-19T02:30:35;97669.00;;;21.91;69.70
34081;BME280;20358;50.272;19.026;2022-08-19T02:33:42;97670.00;;;21.90;69.89
34081;BME280;20358;50.272;19.026;2022-08-19T02:36:48;97670.31;;;21.87;69.68
34081;BME280;20358;50.272;19.026;2022-08-19T02:39:55;97658.00;;;21.86;69.99
34081;BME280;20358;50.272;19.026;2022-08-19T02:43:03;97668.69;;;21.86;69.96
34081;BME280;20358;50.272;19.026;2022-08-19T02:46:14;97667.00;;;21.85;70.06
34081;BME280;20358;50.272;19.026;2022-08-19T02:49:24;97667.34;;;21.82;70.08
34081;BME280;20358;50.272;19.026;2022-08-19T02:52:36;97664.03;;;21.80;70.30
34081;BME280;20358;50.272;19.026;2022-08-19T02:55:44;97665.03;;;21.79;70.15
34081;BME280;20358;50.272;19.026;2022-08-19T02:58:54;97660.69;;;21.78;70.40
34081;BME280;20358;50.272;19.026;2022-08-19T03:02:02;97658.38;;;21.75;70.31
34081;BME280;20358;50.272;19.026;2022-08-19T03:05:10;97657.72;;;21.73;70.33
34081;BME280;20358;50.272;19.026;2022-08-19T03:08:17;97659.72;;;21.71;70.58
34081;BME280;20358;50.272;19.026;2022-08-19T03:11:31;97672.38;;;21.69;70.54
34081;BME280;20358;50.272;19.026;2022-08-19T03:14:40;97669.03;;;21.67;70.49
34081;BME280;20358;50.272;19.026;2022-08-19T03:17:48;97665.72;;;21.65;70.65
34081;BME280;20358;50.272;19.026;2022-08-19T03:20:55;97666.91;;;21.62;70.57
34081;BME280;20358;50.272;19.026;2022-08-19T03:24:04;97667.75;;;21.63;70.64
34081;BME280;20358;50.272;19.026;2022-08-19T03:27:11;97665.41;;;21.60;70.81
34081;BME280;20358;50.272;19.026;2022-08-19T03:30:20;97662.75;;;21.60;71.06
34081;BME280;20358;50.272;19.026;2022-08-19T03:33:28;97667.56;;;21.56;71.07
34081;BME280;20358;50.272;19.026;2022-08-19T03:36:36;97663.41;;;21.54;71.19
34081;BME280;20358;50.272;19.026;2022-08-19T03:39:43;97665.41;;;21.52;71.25
34081;BME280;20358;50.272;19.026;2022-08-19T03:42:48;97669.06;;;21.51;71.20
34081;BME280;20358;50.272;19.026;2022-08-19T03:46:06;97678.09;;;21.50;71.14
34081;BME280;20358;50.272;19.026;2022-08-19T03:49:13;97673.75;;;21.49;71.43
34081;BME280;20358;50.272;19.026;2022-08-19T03:52:20;97683.75;;;21.47;71.29
34081;BME280;20358;50.272;19.026;2022-08-19T03:55:27;97687.25;;;21.47;71.43
34081;BME280;20358;50.272;19.026;2022-08-19T03:58:33;97688.09;;;21.48;71.44
34081;BME280;20358;50.272;19.026;2022-08-19T04:01:43;97683.41;;;21.50;71.58
34081;BME280;20358;50.272;19.026;2022-08-19T04:04:53;97690.41;;;21.51;71.45
34081;BME280;20358;50.272;19.026;2022-08-19T04:07:59;97691.22;;;21.51;71.60
34081;BME280;20358;50.272;19.026;2022-08-19T04:11:07;97692.06;;;21.52;71.69
34081;BME280;20358;50.272;19.026;2022-08-19T04:14:16;97696.41;;;21.53;71.56
34081;BME280;20358;50.272;19.026;2022-08-19T04:17:26;97695.06;;;21.57;71.35
34081;BME280;20358;50.272;19.026;2022-08-19T04:20:33;97697.72;;;21.57;71.38
34081;BME280;20358;50.272;19.026;2022-08-19T04:23:45;97695.56;;;21.60;71.36
34081;BME280;20358;50.272;19.026;2022-08-19T04:26:53;97707.72;;;21.63;71.35
34081;BME280;20358;50.272;19.026;2022-08-19T04:30:03;97715.03;;;21.69;71.44
34081;BME280;20358;50.272;19.026;2022-08-19T04:33:13;97722.22;;;21.76;71.23
34081;BME280;20358;50.272;19.026;2022-08-19T04:36:33;97724.34;;;21.89;71.15
34081;BME280;20358;50.272;19.026;2022-08-19T04:39:40;97733.34;;;22.04;70.99
34081;BME280;20358;50.272;19.026;2022-08-19T04:43:05;97729.47;;;22.23;70.64
34081;BME280;20358;50.272;19.026;2022-08-19T04:46:14;97731.91;;;22.40;70.55
34081;BME280;20358;50.272;19.026;2022-08-19T04:49:45;97730.66;;;22.59;69.79
34081;BME280;20358;50.272;19.026;2022-08-19T04:52:51;97731.75;;;22.73;69.62
34081;BME280;20358;50.272;19.026;2022-08-19T04:56:04;97725.03;;;22.85;69.05
34081;BME280;20358;50.272;19.026;2022-08-19T04:59:10;97739.66;;;22.97;68.40
34081;BME280;20358;50.272;19.026;2022-08-19T05:02:18;97722.56;;;23.06;68.30
34081;BME280;20358;50.272;19.026;2022-08-19T05:05:28;97726.13;;;23.21;67.71
34081;BME280;20358;50.272;19.026;2022-08-19T05:08:48;97727.22;;;23.35;67.47
34081;BME280;20358;50.272;19.026;2022-08-19T05:11:55;97731.97;;;23.47;67.03
34081;BME280;20358;50.272;19.026;2022-08-19T05:15:06;97725.81;;;23.61;66.63
34081;BME280;20358;50.272;19.026;2022-08-19T05:18:12;97733.63;;;23.71;66.10
34081;BME280;20358;50.272;19.026;2022-08-19T05:21:39;97732.22;;;23.75;65.84
34081;BME280;20358;50.272;19.026;2022-08-19T05:25:05;97727.72;;;23.75;66.18
34081;BME280;20358;50.272;19.026;2022-08-19T05:28:16;97735.13;;;23.88;66.24
34081;BME280;20358;50.272;19.026;2022-08-19T05:31:22;97738.44;;;24.05;65.16
34081;BME280;20358;50.272;19.026;2022-08-19T05:34:28;97749.09;;;24.13;65.39
34081;BME280;20358;50.272;19.026;2022-08-19T05:37:38;97754.63;;;24.26;64.86
34081;BME280;20358;50.272;19.026;2022-08-19T05:40:46;97750.31;;;24.39;64.67
34081;BME280;20358;50.272;19.026;2022-08-19T05:43:52;97750.69;;;24.51;64.58
34081;BME280;20358;50.272;19.026;2022-08-19T05:47:00;97748.53;;;24.61;63.74
34081;BME280;20358;50.272;19.026;2022-08-19T05:50:08;97760.16;;;24.68;63.55
34081;BME280;20358;50.272;19.026;2022-08-19T05:53:18;97750.75;;;24.72;63.27
34081;BME280;20358;50.272;19.026;2022-08-19T05:56:24;97745.97;;;24.82;63.20
34081;BME280;20358;50.272;19.026;2022-08-19T05:59:31;97751.84;;;24.92;62.95
34081;BME280;20358;50.272;19.026;2022-08-19T06:02:43;97750.91;;;25.00;62.58
34081;BME280;20358;50.272;19.026;2022-08-19T06:05:50;97754.56;;;25.14;62.39
34081;BME280;20358;50.272;19.026;2022-08-19T06:09:01;97755.09;;;25.24;62.29
34081;BME280;20358;50.272;19.026;2022-08-19T06:12:08;97755.13;;;25.30;61.82
34081;BME280;20358;50.272;19.026;2022-08-19T06:15:15;97758.91;;;25.36;61.63
34081;BME280;20358;50.272;19.026;2022-08-19T06:18:22;97754.84;;;25.40;61.62
34081;BME280;20358;50.272;19.026;2022-08-19T06:21:29;97767.75;;;25.51;61.83
34081;BME280;20358;50.272;19.026;2022-08-19T06:24:39;97765.19;;;25.64;61.47
34081;BME280;20358;50.272;19.026;2022-08-19T06:27:45;97756.16;;;25.72;60.72
34081;BME280;20358;50.272;19.026;2022-08-19T06:31:13;97760.81;;;25.84;60.51
34081;BME280;20358;50.272;19.026;2022-08-19T06:34:19;97765.88;;;25.94;60.34
34081;BME280;20358;50.272;19.026;2022-08-19T06:37:26;97762.84;;;26.03;59.98
34081;BME280;20358;50.272;19.026;2022-08-19T06:40:35;97779.44;;;26.13;59.83
34081;BME280;20358;50.272;19.026;2022-08-19T06:43:42;97777.63;;;26.20;59.61
34081;BME280;20358;50.272;19.026;2022-08-19T06:46:48;97783.91;;;26.27;60.00
34081;BME280;20358;50.272;19.026;2022-08-19T06:49:57;97793.28;;;26.38;59.24
34081;BME280;20358;50.272;19.026;2022-08-19T06:53:07;97788.38;;;26.48;58.86
34081;BME280;20358;50.272;19.026;2022-08-19T06:56:19;97793.31;;;26.51;58.58
34081;BME280;20358;50.272;19.026;2022-08-19T06:59:28;97806.59;;;26.53;58.48
34081;BME280;20358;50.272;19.026;2022-08-19T07:02:35;97802.47;;;26.57;58.36
34081;BME280;20358;50.272;19.026;2022-08-19T07:05:42;97790.97;;;26.63;58.04
34081;BME280;20358;50.272;19.026;2022-08-19T07:08:49;97802.16;;;26.73;58.59
34081;BME280;20358;50.272;19.026;2022-08-19T07:12:00;97800.34;;;26.80;58.02
34081;BME280;20358;50.272;19.026;2022-08-19T07:15:10;97810.69;;;26.83;57.86
34081;BME280;20358;50.272;19.026;2022-08-19T07:18:17;97819.22;;;26.93;57.89
34081;BME280;20358;50.272;19.026;2022-08-19T07:21:27;97822.13;;;26.98;57.40
34081;BME280;20358;50.272;19.026;2022-08-19T07:24:38;97834.16;;;27.02;57.31
34081;BME280;20358;50.272;19.026;2022-08-19T07:27:56;97829.63;;;27.09;57.39
34081;BME280;20358;50.272;19.026;2022-08-19T07:31:03;97834.22;;;27.15;57.23
34081;BME280;20358;50.272;19.026;2022-08-19T07:34:12;97840.91;;;27.26;56.97
34081;BME280;20358;50.272;19.026;2022-08-19T07:37:19;97834.75;;;27.38;56.83
34081;BME280;20358;50.272;19.026;2022-08-19T07:40:25;97838.72;;;27.49;56.51
34081;BME280;20358;50.272;19.026;2022-08-19T07:43:34;97848.88;;;27.54;56.63
34081;BME280;20358;50.272;19.026;2022-08-19T07:46:43;97841.44;;;27.69;56.12
34081;BME280;20358;50.272;19.026;2022-08-19T07:49:54;97848.56;;;27.83;56.24
34081;BME280;20358;50.272;19.026;2022-08-19T07:53:02;97847.91;;;27.94;55.90
34081;BME280;20358;50.272;19.026;2022-08-19T07:56:08;97847.31;;;28.05;55.39
34081;BME280;20358;50.272;19.026;2022-08-19T07:59:18;97856.22;;;28.12;55.62
34081;BME280;20358;50.272;19.026;2022-08-19T08:02:25;97852.72;;;28.25;54.48
34081;BME280;20358;50.272;19.026;2022-08-19T08:05:32;97852.91;;;28.36;54.57
34081;BME280;20358;50.272;19.026;2022-08-19T08:08:53;97859.34;;;28.48;54.90
34081;BME280;20358;50.272;19.026;2022-08-19T08:12:27;97862.66;;;28.63;53.45
34081;BME280;20358;50.272;19.026;2022-08-19T08:15:39;97858.91;;;28.71;53.33
34081;BME280;20358;50.272;19.026;2022-08-19T08:18:48;97858.47;;;28.81;53.45
34081;BME280;20358;50.272;19.026;2022-08-19T08:21:57;97860.13;;;28.82;52.56
34081;BME280;20358;50.272;19.026;2022-08-19T08:25:09;97866.56;;;28.81;52.31
34081;BME280;20358;50.272;19.026;2022-08-19T08:28:16;97870.94;;;28.82;52.63
34081;BME280;20358;50.272;19.026;2022-08-19T08:31:27;97864.28;;;28.84;53.27
34081;BME280;20358;50.272;19.026;2022-08-19T08:34:35;97852.63;;;28.90;52.75
34081;BME280;20358;50.272;19.026;2022-08-19T08:37:42;97854.72;;;28.95;53.24
34081;BME280;20358;50.272;19.026;2022-08-19T08:40:53;97851.41;;;28.99;52.97
34081;BME280;20358;50.272;19.026;2022-08-19T08:44:14;97854.72;;;29.01;52.72
34081;BME280;20358;50.272;19.026;2022-08-19T08:47:30;97852.63;;;29.03;52.54
34081;BME280;20358;50.272;19.026;2022-08-19T08:50:43;97842.25;;;29.07;52.15
34081;BME280;20358;50.272;19.026;2022-08-19T08:53:54;97841.41;;;29.13;52.31
34081;BME280;20358;50.272;19.026;2022-08-19T08:57:04;97838.44;;;29.21;52.04
34081;BME280;20358;50.272;19.026;2022-08-19T09:00:18;97836.75;;;29.26;52.45
34081;BME280;20358;50.272;19.026;2022-08-19T09:03:28;97829.06;;;29.30;52.07
34081;BME280;20358;50.272;19.026;2022-08-19T09:06:40;97824.69;;;29.36;52.67
34081;BME280;20358;50.272;19.026;2022-08-19T09:09:52;97824.22;;;29.52;52.71
34081;BME280;20358;50.272;19.026;2022-08-19T09:13:09;97823.91;;;29.66;52.84
34081;BME280;20358;50.272;19.026;2022-08-19T09:16:21;97832.78;;;29.73;51.85
34081;BME280;20358;50.272;19.026;2022-08-19T09:19:32;97840.84;;;29.80;51.78
34081;BME280;20358;50.272;19.026;2022-08-19T09:22:41;97840.97;;;29.91;51.48
34081;BME280;20358;50.272;19.026;2022-08-19T09:25:49;97833.84;;;30.04;51.28
34081;BME280;20358;50.272;19.026;2022-08-19T09:28:56;97836.22;;;30.18;51.29
34081;BME280;20358;50.272;19.026;2022-08-19T09:32:05;97839.25;;;30.28;50.85
34081;BME280;20358;50.272;19.026;2022-08-19T09:35:32;97841.59;;;30.43;50.04
34081;BME280;20358;50.272;19.026;2022-08-19T09:38:55;97837.94;;;30.62;49.69
34081;BME280;20358;50.272;19.026;2022-08-19T09:42:04;97842.38;;;30.75;48.83
34081;BME280;20358;50.272;19.026;2022-08-19T09:45:32;97842.63;;;30.91;48.65
34081;BME280;20358;50.272;19.026;2022-08-19T09:48:39;97841.88;;;31.02;48.08
34081;BME280;20358;50.272;19.026;2022-08-19T09:51:52;97839.63;;;31.18;47.58
34081;BME280;20358;50.272;19.026;2022-08-19T09:54:59;97845.34;;;31.28;47.35
34081;BME280;20358;50.272;19.026;2022-08-19T09:58:08;97832.81;;;31.45;47.33
34081;BME280;20358;50.272;19.026;2022-08-19T10:01:18;97843.91;;;31.55;46.62
34081;BME280;20358;50.272;19.026;2022-08-19T10:04:25;97845.06;;;31.65;46.92
34081;BME280;20358;50.272;19.026;2022-08-19T10:07:55;97839.69;;;31.77;46.25
34081;BME280;20358;50.272;19.026;2022-08-19T10:11:06;97841.00;;;31.86;45.68
34081;BME280;20358;50.272;19.026;2022-08-19T10:14:34;97843.13;;;31.84;45.19
34081;BME280;20358;50.272;19.026;2022-08-19T10:17:41;97842.41;;;31.89;45.02
34081;BME280;20358;50.272;19.026;2022-08-19T10:21:05;97841.00;;;31.86;45.32
34081;BME280;20358;50.272;19.026;2022-08-19T10:24:15;97843.34;;;31.83;45.21
34081;BME280;20358;50.272;19.026;2022-08-19T10:27:24;97836.59;;;31.74;45.00
34081;BME280;20358;50.272;19.026;2022-08-19T10:30:35;97844.66;;;31.62;45.24
34081;BME280;20358;50.272;19.026;2022-08-19T10:33:42;97839.78;;;31.52;45.46
34081;BME280;20358;50.272;19.026;2022-08-19T10:36:56;97831.78;;;31.46;45.41
34081;BME280;20358;50.272;19.026;2022-08-19T10:40:09;97832.81;;;31.45;45.02
34081;BME280;20358;50.272;19.026;2022-08-19T10:43:16;97822.44;;;31.42;44.91
34081;BME280;20358;50.272;19.026;2022-08-19T10:46:25;97823.97;;;31.38;45.12
34081;BME280;20358;50.272;19.026;2022-08-19T10:49:35;97823.38;;;31.36;45.43
34081;BME280;20358;50.272;19.026;2022-08-19T10:53:04;97815.28;;;31.47;45.22
34081;BME280;20358;50.272;19.026;2022-08-19T10:56:14;97814.88;;;31.62;45.51
34081;BME280;20358;50.272;19.026;2022-08-19T10:59:37;97804.09;;;31.74;45.08
34081;BME280;20358;50.272;19.026;2022-08-19T11:02:43;97801.16;;;31.75;44.54
34081;BME280;20358;50.272;19.026;2022-08-19T11:05:57;97798.59;;;31.80;44.55
34081;BME280;20358;50.272;19.026;2022-08-19T11:09:05;97794.94;;;31.86;45.07
34081;BME280;20358;50.272;19.026;2022-08-19T11:12:14;97793.53;;;31.95;44.83
34081;BME280;20358;50.272;19.026;2022-08-19T11:15:22;97797.22;;;32.12;45.10
34081;BME280;20358;50.272;19.026;2022-08-19T11:18:28;97795.63;;;32.35;44.43
34081;BME280;20358;50.272;19.026;2022-08-19T11:21:36;97799.38;;;32.57;43.28
34081;BME280;20358;50.272;19.026;2022-08-19T11:24:44;97799.84;;;32.77;42.63
34081;BME280;20358;50.272;19.026;2022-08-19T11:27:52;97795.81;;;32.91;41.96
34081;BME280;20358;50.272;19.026;2022-08-19T11:30:59;97803.59;;;32.99;41.81
34081;BME280;20358;50.272;19.026;2022-08-19T11:34:08;97794.34;;;33.12;42.50
34081;BME280;20358;50.272;19.026;2022-08-19T11:37:15;97793.16;;;33.19;41.74
34081;BME280;20358;50.272;19.026;2022-08-19T11:40:22;97793.94;;;33.31;41.55
34081;BME280;20358;50.272;19.026;2022-08-19T11:43:31;97799.16;;;33.33;41.53
34081;BME280;20358;50.272;19.026;2022-08-19T11:46:40;97799.25;;;33.38;41.37
34081;BME280;20358;50.272;19.026;2022-08-19T11:49:49;97810.19;;;33.43;40.43
34081;BME280;20358;50.272;19.026;2022-08-19T11:52:56;97803.81;;;33.49;40.35
34081;BME280;20358;50.272;19.026;2022-08-19T11:56:04;97801.50;;;33.58;40.12
34081;BME280;20358;50.272;19.026;2022-08-19T11:59:14;97810.97;;;33.67;40.00
34081;BME280;20358;50.272;19.026;2022-08-19T12:02:21;97805.03;;;33.70;39.98
34081;BME280;20358;50.272;19.026;2022-08-19T12:05:28;97803.88;;;33.66;39.86
34081;BME280;20358;50.272;19.026;2022-08-19T12:08:37;97799.13;;;33.61;40.04
34081;BME280;20358;50.272;19.026;2022-08-19T12:11:43;97799.34;;;33.60;39.76
34081;BME280;20358;50.272;19.026;2022-08-19T12:14:53;97800.66;;;33.57;39.46
34081;BME280;20358;50.272;19.026;2022-08-19T12:18:02;97802.50;;;33.52;40.07
34081;BME280;20358;50.272;19.026;2022-08-19T12:21:10;97797.63;;;33.54;39.84
34081;BME280;20358;50.272;19.026;2022-08-19T12:24:17;97788.41;;;33.55;40.11
34081;BME280;20358;50.272;19.026;2022-08-19T12:27:27;97782.56;;;33.63;40.04
34081;BME280;20358;50.272;19.026;2022-08-19T12:30:45;97776.88;;;33.76;40.24
34081;BME280;20358;50.272;19.026;2022-08-19T12:33:53;97775.72;;;33.88;39.85
34081;BME280;20358;50.272;19.026;2022-08-19T12:37:03;97781.66;;;34.02;39.50
34081;BME280;20358;50.272;19.026;2022-08-19T12:40:11;97771.69;;;34.07;39.33
34081;BME280;20358;50.272;19.026;2022-08-19T12:43:17;97776.19;;;34.14;39.80
34081;BME280;20358;50.272;19.026;2022-08-19T12:46:28;97765.69;;;34.22;39.68
34081;BME280;20358;50.272;19.026;2022-08-19T12:49:35;97762.88;;;34.17;39.72
34081;BME280;20358;50.272;19.026;2022-08-19T12:52:55;97755.97;;;34.26;39.42
34081;BME280;20358;50.272;19.026;2022-08-19T12:56:03;97740.13;;;34.40;39.41
34081;BME280;20358;50.272;19.026;2022-08-19T12:59:14;97742.41;;;34.48;39.30
34081;BME280;20358;50.272;19.026;2022-08-19T13:02:24;97737.28;;;34.51;39.21
34081;BME280;20358;50.272;19.026;2022-08-19T13:05:32;97740.00;;;34.51;39.00
34081;BME280;20358;50.272;19.026;2022-08-19T13:08:38;97746.69;;;34.44;39.00
34081;BME280;20358;50.272;19.026;2022-08-19T13:11:48;97738.69;;;34.37;39.42
34081;BME280;20358;50.272;19.026;2022-08-19T13:14:55;97744.66;;;34.34;39.08
34081;BME280;20358;50.272;19.026;2022-08-19T13:18:07;97738.13;;;34.35;39.12
34081;BME280;20358;50.272;19.026;2022-08-19T13:21:15;97745.66;;;34.28;38.61
34081;BME280;20358;50.272;19.026;2022-08-19T13:24:25;97739.09;;;34.24;38.30
34081;BME280;20358;50.272;19.026;2022-08-19T13:27:36;97746.09;;;34.20;38.91
34081;BME280;20358;50.272;19.026;2022-08-19T13:30:47;97747.75;;;34.21;38.24
34081;BME280;20358;50.272;19.026;2022-08-19T13:34:11;97733.19;;;34.32;38.59
34081;BME280;20358;50.272;19.026;2022-08-19T13:37:18;97735.97;;;34.37;37.84
34081;BME280;20358;50.272;19.026;2022-08-19T13:40:44;97745.03;;;34.43;38.41
34081;BME280;20358;50.272;19.026;2022-08-19T13:43:51;97738.88;;;34.47;38.20
34081;BME280;20358;50.272;19.026;2022-08-19T13:47:00;97746.78;;;34.49;37.55
34081;BME280;20358;50.272;19.026;2022-08-19T13:50:15;97736.78;;;34.54;38.42
34081;BME280;20358;50.272;19.026;2022-08-19T13:53:22;97738.13;;;34.52;38.27
34081;BME280;20358;50.272;19.026;2022-08-19T13:56:29;97734.00;;;34.49;38.70
34081;BME280;20358;50.272;19.026;2022-08-19T13:59:36;97733.50;;;34.52;38.27
34081;BME280;20358;50.272;19.026;2022-08-19T14:02:44;97729.44;;;34.55;38.50
34081;BME280;20358;50.272;19.026;2022-08-19T14:05:53;97722.09;;;34.55;38.91
34081;BME280;20358;50.272;19.026;2022-08-19T14:09:02;97726.06;;;34.64;38.88
34081;BME280;20358;50.272;19.026;2022-08-19T14:12:09;97727.84;;;34.76;38.55
34081;BME280;20358;50.272;19.026;2022-08-19T14:15:16;97717.69;;;34.93;39.04
34081;BME280;20358;50.272;19.026;2022-08-19T14:18:22;97725.38;;;35.17;38.66
34081;BME280;20358;50.272;19.026;2022-08-19T14:21:33;97714.56;;;35.27;38.31
34081;BME280;20358;50.272;19.026;2022-08-19T14:24:43;97709.75;;;35.35;38.09
34081;BME280;20358;50.272;19.026;2022-08-19T14:27:51;97700.75;;;35.34;38.42
34081;BME280;20358;50.272;19.026;2022-08-19T14:30:58;97703.72;;;35.33;38.20
34081;BME280;20358;50.272;19.026;2022-08-19T14:34:05;97701.28;;;35.36;38.59
34081;BME280;20358;50.272;19.026;2022-08-19T14:37:17;97694.78;;;35.37;38.37
34081;BME280;20358;50.272;19.026;2022-08-19T14:40:26;97695.78;;;35.31;37.81
34081;BME280;20358;50.272;19.026;2022-08-19T14:43:33;97695.25;;;35.29;37.76
34081;BME280;20358;50.272;19.026;2022-08-19T14:46:39;97702.34;;;35.30;37.51
34081;BME280;20358;50.272;19.026;2022-08-19T14:49:51;97683.00;;;35.32;37.73
34081;BME280;20358;50.272;19.026;2022-08-19T14:53:03;97677.31;;;35.33;37.76
34081;BME280;20358;50.272;19.026;2022-08-19T14:56:16;97668.59;;;35.36;37.70
34081;BME280;20358;50.272;19.026;2022-08-19T14:59:24;97664.28;;;35.40;37.78
34081;BME280;20358;50.272;19.026;2022-08-19T15:02:30;97667.06;;;35.45;38.24
34081;BME280;20358;50.272;19.026;2022-08-19T15:05:37;97666.47;;;35.38;37.69
34081;BME280;20358;50.272;19.026;2022-08-19T15:08:46;97658.75;;;35.30;38.01
34081;BME280;20358;50.272;19.026;2022-08-19T15:11:55;97649.41;;;35.21;38.25
34081;BME280;20358;50.272;19.026;2022-08-19T15:15:04;97650.72;;;35.18;37.84
34081;BME280;20358;50.272;19.026;2022-08-19T15:18:11;97652.06;;;35.16;37.82
34081;BME280;20358;50.272;19.026;2022-08-19T15:21:18;97650.44;;;35.15;37.55
34081;BME280;20358;50.272;19.026;2022-08-19T15:24:32;97656.91;;;35.09;38.04
34081;BME280;20358;50.272;19.026;2022-08-19T15:27:49;97653.59;;;35.07;38.18
34081;BME280;20358;50.272;19.026;2022-08-19T15:30:56;97650.47;;;34.93;38.04
34081;BME280;20358;50.272;19.026;2022-08-19T15:34:04;97637.75;;;34.77;38.15
34081;BME280;20358;50.272;19.026;2022-08-19T15:37:12;97631.31;;;34.61;38.47
34081;BME280;20358;50.272;19.026;2022-08-19T15:40:22;97621.06;;;34.47;38.92
34081;BME280;20358;50.272;19.026;2022-08-19T15:43:29;97619.22;;;34.31;38.99
34081;BME280;20358;50.272;19.026;2022-08-19T15:46:38;97622.81;;;34.15;39.35
34081;BME280;20358;50.272;19.026;2022-08-19T15:49:45;97620.84;;;33.93;39.78
34081;BME280;20358;50.272;19.026;2022-08-19T15:52:54;97624.59;;;33.71;39.52
34081;BME280;20358;50.272;19.026;2022-08-19T15:56:05;97626.16;;;33.50;39.27
34081;BME280;20358;50.272;19.026;2022-08-19T15:59:11;97648.38;;;33.30;39.81
34081;BME280;20358;50.272;19.026;2022-08-19T16:02:33;97664.25;;;33.10;39.63
34081;BME280;20358;50.272;19.026;2022-08-19T16:05:55;97664.72;;;32.90;39.56
34081;BME280;20358;50.272;19.026;2022-08-19T16:09:20;97662.66;;;32.69;39.96
34081;BME280;20358;50.272;19.026;2022-08-19T16:12:32;97669.63;;;32.54;40.19
34081;BME280;20358;50.272;19.026;2022-08-19T16:15:39;97672.88;;;32.39;40.36
34081;BME280;20358;50.272;19.026;2022-08-19T16:18:46;97662.53;;;32.24;40.87
34081;BME280;20358;50.272;19.026;2022-08-19T16:21:56;97660.84;;;32.12;41.03
34081;BME280;20358;50.272;19.026;2022-08-19T16:25:04;97658.16;;;32.00;40.82
34081;BME280;20358;50.272;19.026;2022-08-19T16:28:18;97665.44;;;31.88;41.47
34081;BME280;20358;50.272;19.026;2022-08-19T16:31:26;97669.84;;;31.78;41.66
34081;BME280;20358;50.272;19.026;2022-08-19T16:34:33;97672.06;;;31.69;41.65